X  Sluiten METAR luchtvaart weer gegevens      EBBR Brussels Airport
Temperatuur
32°C Temperatuur
9°C Dauwpunt
24% Vochtigheid



Wind
2 KM/U
1 MPH
0 M/S
1 KTS



Kalm
Noord
Huidig weer

Helder Helder
Luchtdruk 1017.92 (hPa) - 30.06 (inHg)
Zicht 6.2 (mijl) - 10 (km)
Vliegveld
Vliegveld code EBBR

Locatie : Brussels Airport
Afstand: 14 (km)

Metar:
EBBR 061520Z VRB01KT CAVOK 32/09 Q1018 NOSIG

Tijd: 2020-08-06 17:20 CEST